Time;durP1;ratioP1;P1;durP2;ratioP2;P2;SDS_P1;SDS_P2;PMS_P1;PMS_P2;Temp;Humidity;BMP_temperature;BMP_pressure;BME280_temperature;BME280_humidity;BME280_pressure;Samples;Min_cycle;Max_cycle;Signal;HPM_P1;HPM_P2
2023/03/09 00:01:33;;;;;;;7.72;5.05;;;8.90;99.90;;;;;;5059468;28;20029;-74
2023/03/09 00:04:00;;;;;;;11.75;6.00;;;9.00;99.90;;;;;;5061892;28;20045;-73
2023/03/09 00:06:26;;;;;;;14.00;6.32;;;9.00;99.90;;;;;;5056202;28;20029;-73
2023/03/09 00:08:53;;;;;;;8.32;4.38;;;9.10;99.90;;;;;;5061923;28;20476;-72
2023/03/09 00:11:19;;;;;;;9.35;3.15;;;9.20;99.90;;;;;;5062838;28;20028;-73
2023/03/09 00:13:47;;;;;;;5.80;2.53;;;9.10;99.90;;;;;;5058137;28;20382;-73
2023/03/09 00:16:22;;;;;;;6.63;3.25;;;9.20;99.90;;;;;;5059168;28;20044;-72
2023/03/09 00:18:51;;;;;;;9.15;3.25;;;9.10;99.90;;;;;;5059827;28;20111;-73
2023/03/09 00:21:34;;;;;;;4.45;2.55;;;9.10;99.90;;;;;;5058686;28;20033;-73
2023/03/09 00:24:06;;;;;;;4.75;1.63;;;9.10;99.90;;;;;;5059197;28;20028;-73
2023/03/09 00:26:36;;;;;;;5.80;2.05;;;9.10;99.90;;;;;;5061514;28;20469;-73
2023/03/09 00:29:03;;;;;;;4.85;2.25;;;9.10;99.90;;;;;;5061372;28;20029;-73
2023/03/09 00:31:30;;;;;;;5.45;2.17;;;9.00;99.90;;;;;;5050821;28;20389;-73
2023/03/09 00:33:56;;;;;;;3.55;2.08;;;9.00;99.90;;;;;;5059601;28;20449;-73
2023/03/09 00:36:24;;;;;;;5.10;2.95;;;9.00;99.90;;;;;;5061975;28;20039;-72
2023/03/09 00:38:51;;;;;;;7.53;4.22;;;8.90;99.90;;;;;;5060041;28;20474;-72
2023/03/09 00:41:19;;;;;;;5.72;2.72;;;9.00;99.90;;;;;;5061083;28;20143;-72
2023/03/09 00:43:46;;;;;;;6.60;2.95;;;9.00;99.90;;;;;;5063837;28;20052;-72
2023/03/09 00:46:13;;;;;;;8.40;4.30;;;9.00;99.90;;;;;;5060940;28;20033;-72
2023/03/09 00:48:39;;;;;;;8.55;5.32;;;9.00;99.90;;;;;;5060290;28;20397;-74
2023/03/09 00:51:06;;;;;;;9.50;5.10;;;9.00;99.90;;;;;;5059830;28;20044;-72
2023/03/09 00:53:33;;;;;;;10.70;5.53;;;9.10;99.90;;;;;;5060127;28;20052;-72
2023/03/09 00:56:04;;;;;;;6.43;3.60;;;9.00;99.90;;;;;;5051488;28;20061;-72
2023/03/09 00:58:31;;;;;;;5.82;3.55;;;9.00;99.90;;;;;;5063382;28;20041;-73
2023/03/09 01:00:57;;;;;;;7.15;3.50;;;9.00;99.90;;;;;;5061602;28;20128;-72
2023/03/09 01:03:23;;;;;;;5.10;3.10;;;9.00;99.90;;;;;;5064403;28;20037;-72
2023/03/09 01:05:50;;;;;;;5.03;2.85;;;9.00;99.90;;;;;;5056613;28;20045;-72
2023/03/09 01:08:17;;;;;;;7.20;2.35;;;8.90;99.90;;;;;;5062096;28;20037;-72
2023/03/09 01:10:44;;;;;;;4.03;2.50;;;8.90;99.90;;;;;;5064815;28;20029;-73
2023/03/09 01:13:10;;;;;;;3.85;1.70;;;8.80;99.90;;;;;;5062732;28;20036;-73
2023/03/09 01:15:37;;;;;;;8.38;2.40;;;8.80;99.90;;;;;;5064876;28;20081;-74
2023/03/09 01:18:03;;;;;;;2.05;1.25;;;8.80;99.90;;;;;;5062351;28;20040;-73
2023/03/09 01:20:30;;;;;;;2.75;1.25;;;8.80;99.90;;;;;;5064656;28;20025;-72
2023/03/09 01:22:56;;;;;;;6.47;1.95;;;8.80;99.90;;;;;;5062883;28;20044;-72
2023/03/09 01:25:22;;;;;;;6.55;1.90;;;8.80;99.90;;;;;;5085180;28;20033;-73
2023/03/09 01:27:50;;;;;;;2.97;1.15;;;8.80;99.90;;;;;;5074325;28;20028;-72
2023/03/09 01:30:16;;;;;;;3.75;1.50;;;8.90;99.90;;;;;;5064613;28;20037;-72
2023/03/09 01:32:45;;;;;;;5.88;1.75;;;8.90;99.90;;;;;;5060457;28;20045;-72
2023/03/09 01:35:11;;;;;;;4.10;1.50;;;8.90;99.90;;;;;;5052542;28;20048;-72
2023/03/09 01:37:37;;;;;;;2.35;0.93;;;8.90;99.90;;;;;;5056174;28;20474;-73
2023/03/09 01:40:06;;;;;;;2.88;1.40;;;9.00;99.90;;;;;;5073106;28;20040;-72
2023/03/09 01:42:33;;;;;;;4.55;1.40;;;9.00;99.90;;;;;;5063092;28;20045;-72
2023/03/09 01:45:26;;;;;;;3.17;1.50;;;8.90;99.90;;;;;;5063423;28;20401;-72
2023/03/09 01:47:53;;;;;;;4.75;1.98;;;8.90;99.90;;;;;;5033162;28;20040;-73
2023/03/09 01:50:28;;;;;;;2.95;1.05;;;9.00;99.90;;;;;;5063433;28;20055;-72
2023/03/09 01:52:56;;;;;;;7.90;3.28;;;9.00;99.90;;;;;;5063104;28;20029;-72
2023/03/09 01:55:29;;;;;;;6.35;2.40;;;9.10;99.90;;;;;;5060007;28;20041;-72
2023/03/09 01:57:59;;;;;;;8.48;4.50;;;9.10;99.90;;;;;;5078919;28;20064;-72
2023/03/09 02:00:26;;;;;;;4.40;2.25;;;9.20;99.90;;;;;;5065358;28;20033;-72
2023/03/09 02:03:07;;;;;;;9.95;4.47;;;9.20;99.90;;;;;;5060612;28;20029;-72
2023/03/09 02:06:03;;;;;;;5.55;1.52;;;9.20;99.90;;;;;;5061733;28;20040;-72
2023/03/09 02:08:31;;;;;;;11.50;3.38;;;9.10;99.90;;;;;;5033631;28;20052;-72
2023/03/09 02:11:03;;;;;;;10.63;3.58;;;9.00;99.90;;;;;;5060434;28;20635;-72
2023/03/09 02:13:33;;;;;;;5.05;2.63;;;9.00;99.90;;;;;;5077103;28;20049;-72
2023/03/09 02:15:59;;;;;;;7.88;3.88;;;9.00;99.90;;;;;;5062446;28;20579;-72
2023/03/09 02:18:27;;;;;;;9.35;5.65;;;9.00;99.90;;;;;;5077524;28;20042;-72
2023/03/09 02:21:24;;;;;;;20.60;13.40;;;9.00;99.90;;;;;;5079703;28;20377;-72
2023/03/09 02:24:12;;;;;;;4.78;2.60;;;9.00;99.90;;;;;;5064519;28;20475;-72
2023/03/09 02:26:38;;;;;;;7.28;2.78;;;8.90;99.90;;;;;;5054232;28;20044;-74
2023/03/09 02:29:04;;;;;;;4.93;1.88;;;8.90;99.90;;;;;;5076227;28;20051;-72
2023/03/09 02:31:31;;;;;;;3.42;1.70;;;8.90;99.90;;;;;;5061441;28;20037;-73
2023/03/09 02:33:57;;;;;;;5.40;2.00;;;8.90;99.90;;;;;;5077865;28;20109;-73
2023/03/09 02:36:24;;;;;;;4.22;1.70;;;8.90;99.90;;;;;;5073078;28;20474;-72
2023/03/09 02:39:01;;;;;;;2.15;1.27;;;8.90;99.90;;;;;;5050169;28;20045;-73
2023/03/09 02:41:27;;;;;;;2.53;1.50;;;9.00;99.90;;;;;;5078774;28;20045;-73
2023/03/09 02:43:57;;;;;;;3.42;1.52;;;9.00;99.90;;;;;;5059937;28;20481;-73
2023/03/09 02:46:26;;;;;;;4.10;2.78;;;9.00;99.90;;;;;;5061717;28;20045;-73
2023/03/09 02:48:52;;;;;;;3.30;1.23;;;9.00;99.90;;;;;;5061474;28;20052;-72
2023/03/09 02:51:19;;;;;;;3.40;0.90;;;9.00;99.90;;;;;;5061731;28;20080;-73
2023/03/09 02:53:46;;;;;;;3.13;0.98;;;9.00;99.90;;;;;;5069817;28;20064;-73
2023/03/09 02:56:13;;;;;;;4.30;1.73;;;9.00;99.90;;;;;;5079745;28;20470;-73
2023/03/09 02:58:39;;;;;;;6.97;1.67;;;9.00;99.90;;;;;;5050004;28;20045;-74
2023/03/09 03:01:05;;;;;;;4.30;1.83;;;9.00;99.90;;;;;;5063324;28;20043;-72
2023/03/09 03:03:32;;;;;;;6.28;2.50;;;8.90;99.90;;;;;;5062560;28;20028;-72
2023/03/09 03:05:58;;;;;;;7.10;2.08;;;9.00;99.90;;;;;;5051257;28;20044;-72
2023/03/09 03:08:25;;;;;;;3.05;1.67;;;9.00;99.90;;;;;;5052970;28;20068;-72
2023/03/09 03:10:51;;;;;;;6.35;1.92;;;9.00;99.90;;;;;;5060105;28;20052;-73
2023/03/09 03:13:17;;;;;;;3.95;1.77;;;9.00;99.90;;;;;;5069681;28;20492;-72
2023/03/09 03:15:43;;;;;;;5.85;1.80;;;9.00;99.90;;;;;;5063832;28;20052;-73
2023/03/09 03:18:10;;;;;;;4.32;1.55;;;8.90;99.90;;;;;;5061106;28;20040;-72
2023/03/09 03:20:36;;;;;;;2.72;1.42;;;8.90;99.90;;;;;;5062479;28;20037;-73
2023/03/09 03:23:04;;;;;;;2.85;1.35;;;8.90;99.90;;;;;;5057628;28;20045;-72
2023/03/09 03:25:44;;;;;;;3.83;1.00;;;8.80;99.90;;;;;;5059127;28;20055;-73
2023/03/09 03:28:10;;;;;;;3.10;0.88;;;8.80;99.90;;;;;;5063375;28;20036;-72
2023/03/09 03:30:37;;;;;;;2.05;1.20;;;8.80;99.90;;;;;;5060545;28;20458;-72
2023/03/09 03:33:03;;;;;;;2.90;1.13;;;8.80;99.90;;;;;;5052701;28;20454;-72
2023/03/09 03:35:33;;;;;;;2.30;1.15;;;8.90;99.90;;;;;;5061641;28;20383;-72
2023/03/09 03:37:59;;;;;;;1.48;0.82;;;8.90;99.90;;;;;;5060915;28;20049;-72
2023/03/09 03:40:27;;;;;;;4.07;1.40;;;9.00;99.90;;;;;;5058404;28;20037;-72
2023/03/09 03:42:55;;;;;;;4.03;1.38;;;8.80;99.90;;;;;;5058686;28;20060;-72
2023/03/09 03:45:21;;;;;;;3.00;1.40;;;8.80;99.90;;;;;;5061713;28;20053;-72
2023/03/09 03:47:48;;;;;;;4.65;1.05;;;8.80;99.90;;;;;;5057625;28;20040;-72
2023/03/09 03:50:15;;;;;;;5.82;1.38;;;8.80;99.90;;;;;;5075440;28;20405;-72
2023/03/09 03:52:48;;;;;;;3.47;1.58;;;8.80;99.90;;;;;;5057266;28;20375;-72
2023/03/09 03:55:15;;;;;;;3.17;1.77;;;8.80;99.90;;;;;;5077619;28;20060;-72
2023/03/09 03:57:41;;;;;;;4.13;2.10;;;8.80;99.90;;;;;;5062176;28;20048;-74
2023/03/09 04:00:10;;;;;;;4.85;1.73;;;8.80;99.90;;;;;;5058053;28;20048;-72
2023/03/09 04:02:38;;;;;;;5.03;2.80;;;8.90;92.50;;;;;;5060925;28;20040;-73
2023/03/09 04:05:07;;;;;;;3.35;2.00;;;9.00;71.70;;;;;;5047683;28;20052;-73
2023/03/09 04:07:35;;;;;;;4.32;1.90;;;8.90;70.40;;;;;;5051954;28;20437;-73
2023/03/09 04:10:01;;;;;;;3.10;1.40;;;8.90;76.80;;;;;;5061954;28;20580;-73
2023/03/09 04:12:30;;;;;;;4.85;1.60;;;8.90;66.20;;;;;;5061914;28;20052;-72
2023/03/09 04:14:56;;;;;;;3.65;2.35;;;9.00;48.10;;;;;;5056290;28;20049;-73
2023/03/09 04:17:23;;;;;;;4.65;1.77;;;8.90;40.50;;;;;;5062115;28;20041;-72
2023/03/09 04:19:49;;;;;;;4.68;2.00;;;9.00;40.30;;;;;;5060983;28;20040;-73
2023/03/09 04:22:15;;;;;;;4.15;1.88;;;8.90;47.10;;;;;;5059219;28;20382;-72
2023/03/09 04:24:42;;;;;;;5.35;1.83;;;9.00;33.30;;;;;;5061844;28;20029;-74
2023/03/09 04:27:08;;;;;;;6.70;2.17;;;8.90;36.40;;;;;;5060036;28;20037;-72
2023/03/09 04:30:00;;;;;;;3.47;1.95;;;8.90;31.70;;;;;;5044644;28;20059;-73
2023/03/09 04:32:31;;;;;;;3.80;2.15;;;8.90;31.50;;;;;;5048452;28;20044;-72
2023/03/09 04:35:04;;;;;;;3.72;1.55;;;8.80;33.10;;;;;;5071376;28;20060;-72
2023/03/09 04:37:31;;;;;;;3.03;1.73;;;8.90;22.00;;;;;;5050810;28;20064;-72
2023/03/09 04:39:58;;;;;;;6.53;1.98;;;8.90;19.90;;;;;;5063251;28;20470;-73
2023/03/09 04:42:24;;;;;;;3.70;1.90;;;9.00;11.50;;;;;;5056388;28;20501;-73
2023/03/09 04:44:50;;;;;;;3.58;2.00;;;9.00;3.70;;;;;;5062087;28;20508;-72
2023/03/09 04:47:17;;;;;;;4.95;2.00;;;9.00;7.60;;;;;;5065120;28;20048;-73
2023/03/09 04:49:43;;;;;;;5.30;2.15;;;9.00;3.70;;;;;;5066473;28;20039;-73
2023/03/09 04:52:11;;;;;;;6.03;2.67;;;9.10;1.00;;;;;;5059004;28;20041;-73
2023/03/09 04:54:39;;;;;;;5.07;2.00;;;9.10;1.00;;;;;;5071200;28;20486;-73
2023/03/09 04:57:05;;;;;;;5.03;1.95;;;9.00;1.00;;;;;;5055287;28;20627;-73
2023/03/09 04:59:32;;;;;;;4.65;1.65;;;9.00;1.00;;;;;;5073942;28;20037;-72
2023/03/09 05:01:59;;;;;;;2.92;2.20;;;8.90;1.00;;;;;;5067740;28;20049;-73
2023/03/09 05:04:33;;;;;;;11.05;3.03;;;8.90;1.00;;;;;;5062088;28;20045;-73
2023/03/09 05:06:59;;;;;;;5.97;2.08;;;8.90;1.00;;;;;;5066156;28;20028;-72
2023/03/09 05:09:27;;;;;;;9.82;2.50;;;8.80;1.00;;;;;;5061770;28;20045;-72
2023/03/09 05:11:53;;;;;;;4.53;1.85;;;8.80;1.00;;;;;;5062276;28;20385;-73
2023/03/09 05:14:22;;;;;;;5.88;1.92;;;8.80;1.00;;;;;;5062489;28;20462;-73
2023/03/09 05:16:52;;;;;;;14.13;3.08;;;8.80;1.00;;;;;;5078753;28;20041;-74
2023/03/09 05:19:21;;;;;;;6.28;2.30;;;8.90;1.00;;;;;;5060424;28;20124;-73
2023/03/09 05:21:48;;;;;;;7.22;1.83;;;8.80;1.00;;;;;;5055293;28;20045;-74
2023/03/09 05:24:16;;;;;;;5.45;2.05;;;8.90;1.00;;;;;;5051362;28;20045;-73
2023/03/09 05:26:43;;;;;;;8.90;2.10;;;9.00;1.00;;;;;;5062455;28;20490;-73
2023/03/09 05:29:11;;;;;;;8.73;2.30;;;9.10;1.00;;;;;;5076109;28;20040;-73
2023/03/09 05:31:38;;;;;;;7.65;1.88;;;9.20;1.00;;;;;;5064588;28;20041;-72
2023/03/09 05:34:05;;;;;;;4.43;2.38;;;9.20;1.00;;;;;;5059531;28;20036;-73
2023/03/09 05:36:31;;;;;;;7.25;2.13;;;9.20;1.00;;;;;;5078791;28;20398;-73
2023/03/09 05:39:03;;;;;;;13.75;2.60;;;9.10;1.00;;;;;;5061382;28;20041;-73
2023/03/09 05:41:31;;;;;;;11.05;2.65;;;9.10;1.00;;;;;;5081997;28;20060;-74
2023/03/09 05:44:03;;;;;;;7.68;2.63;;;9.10;1.00;;;;;;5068039;28;20049;-73
2023/03/09 05:46:30;;;;;;;10.13;3.20;;;9.10;1.00;;;;;;5063432;28;20048;-73
2023/03/09 05:48:56;;;;;;;12.82;2.08;;;9.20;1.00;;;;;;5058084;28;20130;-73
2023/03/09 05:51:23;;;;;;;9.35;2.63;;;9.20;1.00;;;;;;5061916;28;20394;-73
2023/03/09 05:53:52;;;;;;;6.05;1.77;;;9.20;1.00;;;;;;5042811;28;20045;-72
2023/03/09 05:56:19;;;;;;;22.52;2.70;;;9.20;1.00;;;;;;5078229;28;20051;-72
2023/03/09 05:58:50;;;;;;;10.05;3.00;;;9.20;1.00;;;;;;5061342;28;20067;-74
2023/03/09 06:01:26;;;;;;;10.27;2.22;;;9.10;1.00;;;;;;5079494;28;20040;-74
2023/03/09 06:03:58;;;;;;;10.50;1.90;;;9.10;1.00;;;;;;5058981;28;20044;-74
2023/03/09 06:06:25;;;;;;;9.35;2.25;;;9.00;1.00;;;;;;5062842;28;20073;-74
2023/03/09 06:08:52;;;;;;;13.93;2.08;;;9.00;1.00;;;;;;5060338;28;20059;-73
2023/03/09 06:11:18;;;;;;;11.18;2.28;;;8.90;1.00;;;;;;5063913;28;20382;-74
2023/03/09 06:13:45;;;;;;;13.73;2.47;;;8.90;1.00;;;;;;5061903;28;20044;-74
2023/03/09 06:16:16;;;;;;;8.20;2.10;;;9.00;1.00;;;;;;5060943;28;20044;-74
2023/03/09 06:18:44;;;;;;;7.55;1.90;;;9.00;1.00;;;;;;5078960;28;20046;-74
2023/03/09 06:21:13;;;;;;;8.65;2.10;;;8.90;1.00;;;;;;5061180;28;20044;-73
2023/03/09 06:23:40;;;;;;;6.47;2.40;;;9.00;1.00;;;;;;5076307;28;20049;-74
2023/03/09 06:26:12;;;;;;;6.65;1.52;;;9.00;1.00;;;;;;5076989;28;20227;-73
2023/03/09 06:28:40;;;;;;;8.45;2.17;;;9.10;1.00;;;;;;5061089;28;20517;-73
2023/03/09 06:31:11;;;;;;;11.98;2.40;;;9.10;1.00;;;;;;5060989;28;20049;-74
2023/03/09 06:33:42;;;;;;;8.93;2.00;;;9.10;1.00;;;;;;5058673;28;20045;-74
2023/03/09 06:36:09;;;;;;;7.38;1.90;;;9.10;1.00;;;;;;5063696;28;20040;-74
2023/03/09 06:38:36;;;;;;;9.15;2.40;;;9.10;1.00;;;;;;5063477;28;20044;-74
2023/03/09 06:41:04;;;;;;;6.55;1.52;;;9.20;1.00;;;;;;5058611;28;20482;-74
2023/03/09 06:43:30;;;;;;;10.30;2.00;;;9.30;1.00;;;;;;5066711;28;20045;-74
2023/03/09 06:45:56;;;;;;;4.50;1.70;;;9.30;1.00;;;;;;5061062;28;20053;-74
2023/03/09 06:48:24;;;;;;;9.57;2.55;;;9.40;1.00;;;;;;5069976;28;20037;-74
2023/03/09 06:50:50;;;;;;;9.13;2.63;;;9.40;1.00;;;;;;5066798;28;20044;-76
2023/03/09 06:53:16;;;;;;;9.02;2.50;;;9.40;1.00;;;;;;5063093;28;20033;-74
2023/03/09 06:55:45;;;;;;;10.60;2.35;;;9.50;1.00;;;;;;5074518;28;20407;-74
2023/03/09 06:58:12;;;;;;;9.85;2.15;;;9.40;1.00;;;;;;5051824;28;20059;-74
2023/03/09 07:00:43;;;;;;;9.02;2.22;;;9.50;1.00;;;;;;5076624;28;20044;-74
2023/03/09 07:03:15;;;;;;;11.90;2.63;;;9.40;1.00;;;;;;5078265;28;20036;-73
2023/03/09 07:05:43;;;;;;;6.70;1.70;;;9.40;1.00;;;;;;5077342;28;20040;-73
2023/03/09 07:08:09;;;;;;;10.38;2.88;;;9.40;1.00;;;;;;5077171;28;20084;-74
2023/03/09 07:10:35;;;;;;;10.13;3.25;;;9.30;1.00;;;;;;5063117;28;20033;-73
2023/03/09 07:13:01;;;;;;;8.80;2.40;;;9.30;1.00;;;;;;5061971;28;20122;-74
2023/03/09 07:15:28;;;;;;;8.68;2.03;;;9.40;1.00;;;;;;5061992;28;20048;-73
2023/03/09 07:17:54;;;;;;;8.80;1.95;;;9.50;1.00;;;;;;5062307;28;20135;-75
2023/03/09 07:20:23;;;;;;;9.02;2.50;;;9.60;1.00;;;;;;5061899;28;20032;-74
2023/03/09 07:22:49;;;;;;;10.52;2.78;;;9.70;1.00;;;;;;5066407;28;20025;-74
2023/03/09 07:25:16;;;;;;;8.25;3.20;;;9.80;1.00;;;;;;5060779;28;20029;-74
2023/03/09 07:27:43;;;;;;;10.55;4.15;;;9.80;1.00;;;;;;5059652;28;20059;-74
2023/03/09 07:30:09;;;;;;;7.13;2.42;;;9.80;1.00;;;;;;5061866;28;20025;-74
2023/03/09 07:32:35;;;;;;;4.28;2.05;;;9.80;1.00;;;;;;5061742;28;20033;-73
2023/03/09 07:35:02;;;;;;;7.95;1.40;;;9.90;1.00;;;;;;5058524;28;20029;-74
2023/03/09 07:37:28;;;;;;;6.25;1.45;;;10.00;1.00;;;;;;5063569;28;20465;-73
2023/03/09 07:39:54;;;;;;;5.47;1.38;;;10.10;1.00;;;;;;5059474;28;20033;-75
2023/03/09 07:42:20;;;;;;;4.95;1.17;;;10.10;1.00;;;;;;5063798;28;20045;-73
2023/03/09 07:45:01;;;;;;;5.65;1.05;;;10.20;1.00;;;;;;5056768;28;20147;-73
2023/03/09 07:47:27;;;;;;;5.28;1.23;;;10.20;1.00;;;;;;5063320;28;20047;-73
2023/03/09 07:49:53;;;;;;;3.63;0.80;;;10.40;1.00;;;;;;5058010;28;20028;-75
2023/03/09 07:52:19;;;;;;;4.18;1.38;;;10.50;1.00;;;;;;5059537;28;20485;-73
2023/03/09 07:54:49;;;;;;;1.80;0.55;;;10.60;1.00;;;;;;5058684;28;20028;-74
2023/03/09 07:57:15;;;;;;;5.33;1.33;;;10.60;1.00;;;;;;5060284;28;20744;-74
2023/03/09 07:59:41;;;;;;;3.75;0.90;;;10.50;1.00;;;;;;5061625;28;20056;-74
2023/03/09 08:02:09;;;;;;;8.65;1.10;;;10.30;1.00;;;;;;5056535;28;20040;-74
2023/03/09 08:04:35;;;;;;;2.55;0.60;;;10.30;1.00;;;;;;5056566;28;20037;-75
2023/03/09 08:07:02;;;;;;;6.40;1.85;;;10.40;1.00;;;;;;5058663;28;20032;-74
2023/03/09 08:09:28;;;;;;;4.25;0.82;;;10.60;1.00;;;;;;5060535;28;20040;-74
2023/03/09 08:11:54;;;;;;;3.65;0.80;;;10.80;1.00;;;;;;5062060;28;20029;-75
2023/03/09 08:14:20;;;;;;;4.30;1.20;;;10.90;1.00;;;;;;5055692;28;20025;-74
2023/03/09 08:16:46;;;;;;;3.40;1.23;;;10.70;1.00;;;;;;5057691;28;20033;-74
2023/03/09 08:19:12;;;;;;;2.03;1.00;;;10.60;1.00;;;;;;5062286;28;20700;-74
2023/03/09 08:21:38;;;;;;;4.65;1.10;;;10.50;1.00;;;;;;5061902;28;20409;-74
2023/03/09 08:24:05;;;;;;;4.28;1.15;;;10.50;1.00;;;;;;5054118;28;20025;-74
2023/03/09 08:26:31;;;;;;;4.78;0.85;;;10.50;1.00;;;;;;5074567;28;20048;-74
2023/03/09 08:28:58;;;;;;;5.78;1.40;;;10.50;1.00;;;;;;5058275;28;20039;-75
2023/03/09 08:31:24;;;;;;;3.90;0.95;;;10.50;1.00;;;;;;5059175;28;20052;-74
2023/03/09 08:33:51;;;;;;;2.72;1.90;;;10.50;1.00;;;;;;5062755;28;20056;-74
2023/03/09 08:36:20;;;;;;;4.50;1.40;;;10.60;1.00;;;;;;5070920;28;20041;-75
2023/03/09 08:38:47;;;;;;;6.45;0.98;;;10.50;1.00;;;;;;5063493;28;20048;-74
2023/03/09 08:41:14;;;;;;;3.22;1.10;;;10.60;1.00;;;;;;5064546;28;20040;-74
2023/03/09 08:43:40;;;;;;;7.22;4.13;;;10.50;1.00;;;;;;5058917;28;20045;-74
2023/03/09 08:46:07;;;;;;;7.68;1.80;;;10.50;1.00;;;;;;5062227;28;20071;-74
2023/03/09 08:48:34;;;;;;;2.55;0.70;;;10.50;1.00;;;;;;5062748;28;20037;-74
2023/03/09 08:51:02;;;;;;;3.88;1.48;;;10.50;1.00;;;;;;5058511;28;20029;-74
2023/03/09 08:53:30;;;;;;;8.00;1.85;;;10.50;1.00;;;;;;5061043;28;20047;-74
2023/03/09 08:55:56;;;;;;;2.50;1.00;;;10.50;1.00;;;;;;5058140;28;20032;-75
2023/03/09 08:58:22;;;;;;;6.43;1.17;;;10.60;1.00;;;;;;5062187;28;20052;-74
2023/03/09 09:00:49;;;;;;;8.43;1.13;;;10.70;1.00;;;;;;5059323;28;20033;-74
2023/03/09 09:03:15;;;;;;;4.93;1.73;;;10.70;1.00;;;;;;5060631;28;20029;-74
2023/03/09 09:05:42;;;;;;;5.85;1.02;;;10.70;1.00;;;;;;5058145;28;20363;-74
2023/03/09 09:08:08;;;;;;;6.32;0.93;;;10.70;1.00;;;;;;5059002;28;20037;-74
2023/03/09 09:10:34;;;;;;;8.90;1.45;;;10.70;1.00;;;;;;5058847;28;20032;-74
2023/03/09 09:13:01;;;;;;;5.70;1.27;;;10.60;1.00;;;;;;5058759;28;20037;-75
2023/03/09 09:15:27;;;;;;;6.38;1.38;;;10.60;1.00;;;;;;5059447;28;20450;-74
2023/03/09 09:17:54;;;;;;;5.60;0.95;;;10.70;1.00;;;;;;5061940;28;20043;-74
2023/03/09 09:20:20;;;;;;;3.65;1.33;;;10.70;1.00;;;;;;5061177;28;20585;-74
2023/03/09 09:22:46;;;;;;;8.45;2.50;;;10.70;1.00;;;;;;5065045;28;20035;-74
2023/03/09 09:25:12;;;;;;;5.82;1.63;;;10.80;1.00;;;;;;5063334;28;20040;-74
2023/03/09 09:27:39;;;;;;;4.75;1.40;;;10.90;1.00;;;;;;5064959;28;20036;-74
2023/03/09 09:30:06;;;;;;;3.95;1.45;;;11.00;1.00;;;;;;5061139;28;20033;-74
2023/03/09 09:32:32;;;;;;;5.55;1.75;;;11.20;1.00;;;;;;5058301;28;20036;-74
2023/03/09 09:34:59;;;;;;;6.00;2.28;;;11.20;1.00;;;;;;5063712;28;20028;-74
2023/03/09 09:37:26;;;;;;;7.18;2.42;;;11.30;1.00;;;;;;5067307;28;20382;-74
2023/03/09 09:39:52;;;;;;;7.07;2.13;;;11.30;1.00;;;;;;5066241;28;20040;-73
2023/03/09 09:42:29;;;;;;;10.57;2.10;;;11.30;1.00;;;;;;5061988;28;20049;-74
2023/03/09 09:44:57;;;;;;;12.57;2.35;;;11.20;1.00;;;;;;5065746;28;20045;-74
2023/03/09 09:47:26;;;;;;;9.32;2.00;;;11.20;1.00;;;;;;5054558;28;20037;-74
2023/03/09 09:49:55;;;;;;;10.52;2.22;;;11.20;1.00;;;;;;5060804;28;20039;-74
2023/03/09 09:52:37;;;;;;;5.18;1.75;;;11.30;1.00;;;;;;5059157;28;20033;-74
2023/03/09 09:55:36;;;;;;;11.05;2.50;;;11.40;1.00;;;;;;5054348;28;20036;-74
2023/03/09 09:58:17;;;;;;;4.43;1.95;;;11.60;1.00;;;;;;5057822;28;20044;-74
2023/03/09 10:00:49;;;;;;;6.32;1.45;;;11.60;99.90;;;;;;5053249;28;20051;-74
2023/03/09 10:03:35;;;;;;;;;;;11.60;99.90;;;;;;5061961;28;20088;-74
2023/03/09 10:06:08;;;;;;;6.20;1.90;;;11.60;99.90;;;;;;5054641;28;19908;-74
2023/03/09 10:08:39;;;;;;;7.13;2.05;;;11.60;1.00;;;;;;5054326;28;20040;-74
2023/03/09 10:11:15;;;;;;;;;;;11.50;99.90;;;;;;5063003;28;20029;-74
2023/03/09 10:13:46;;;;;;;7.28;1.70;;;11.50;99.90;;;;;;5064438;28;19983;-73
2023/03/09 10:16:29;;;;;;;7.90;1.90;;;11.60;99.90;;;;;;5073425;28;20040;-73
2023/03/09 10:19:04;;;;;;;7.45;1.77;;;11.60;99.90;;;;;;5078734;28;20032;-75
2023/03/09 10:21:44;;;;;;;6.25;2.97;;;11.50;1.00;;;;;;5083755;28;20039;-74
2023/03/09 10:24:31;;;;;;;9.15;2.05;;;11.70;99.90;;;;;;5069275;28;20021;-73
2023/03/09 10:27:06;;;;;;;9.02;2.40;;;11.70;99.90;;;;;;5067894;28;20071;-74
2023/03/09 10:30:00;;;;;;;10.32;3.28;;;11.80;99.90;;;;;;5068355;28;20033;-74
2023/03/09 10:32:42;;;;;;;9.35;2.00;;;11.90;99.90;;;;;;5054472;28;20040;-76
2023/03/09 10:35:39;;;;;;;6.18;2.13;;;12.00;99.90;;;;;;5045463;28;20064;-76
2023/03/09 10:38:14;;;;;;;6.82;1.65;;;12.10;99.90;;;;;;5050411;28;20394;-76
2023/03/09 10:40:44;;;;;;;7.43;1.90;;;12.10;99.90;;;;;;5053623;28;20044;-75
2023/03/09 10:43:28;;;;;;;7.55;2.38;;;12.20;99.90;;;;;;5052546;28;20057;-74
2023/03/09 10:45:55;;;;;;;3.92;1.30;;;12.30;99.90;;;;;;5060677;28;20037;-74
2023/03/09 10:48:26;;;;;;;10.77;3.65;;;12.10;99.90;;;;;;5076627;28;20020;-75
2023/03/09 10:51:04;;;;;;;7.03;1.65;;;12.20;99.90;;;;;;5079281;28;20032;-74
2023/03/09 10:53:43;;;;;;;5.00;1.13;;;12.30;99.90;;;;;;5075613;28;20032;-74
2023/03/09 10:56:27;;;;;;;4.97;1.05;;;12.30;99.90;;;;;;5069632;28;20026;-74
2023/03/09 10:59:08;;;;;;;5.88;1.50;;;12.40;99.90;;;;;;5072937;28;20500;-74
2023/03/09 11:01:35;;;;;;;5.20;1.17;;;12.30;99.90;;;;;;5060547;28;20032;-74
2023/03/09 11:04:22;;;;;;;3.88;1.25;;;12.40;99.90;;;;;;5063798;28;20083;-76
2023/03/09 11:06:57;;;;;;;2.40;1.00;;;12.40;99.90;;;;;;5062562;28;20036;-74
2023/03/09 11:09:29;;;;;;;6.43;1.58;;;12.40;1.00;;;;;;5058353;28;20377;-74
2023/03/09 11:12:18;;;;;;;7.57;1.60;;;12.40;1.00;;;;;;5059898;28;20029;-74
2023/03/09 11:14:59;;;;;;;6.70;1.48;;;12.40;1.00;;;;;;5052233;28;20040;-74
2023/03/09 11:17:39;;;;;;;4.10;1.08;;;12.40;1.00;;;;;;5059372;28;20037;-74
2023/03/09 11:20:21;;;;;;;7.00;1.60;;;12.40;1.00;;;;;;5055971;28;20045;-73
2023/03/09 11:23:17;;;;;;;5.40;0.82;;;12.50;1.00;;;;;;5057828;28;20033;-73
2023/03/09 11:26:18;;;;;;;4.82;1.45;;;12.80;1.00;;;;;;5055611;28;20048;-72
2023/03/09 11:28:57;;;;;;;5.05;1.10;;;12.90;1.00;;;;;;5041431;28;20049;-72
2023/03/09 11:31:34;;;;;;;4.05;1.00;;;13.00;1.00;;;;;;5055447;28;20223;-73
2023/03/09 11:34:00;;;;;;;3.45;0.90;;;13.00;99.90;;;;;;5060818;28;20055;-76
2023/03/09 11:36:35;;;;;;;7.10;1.80;;;13.10;99.90;;;;;;5058784;28;20362;-72
2023/03/09 11:39:05;;;;;;;2.38;0.80;;;13.20;99.90;;;;;;5062844;28;20048;-75
2023/03/09 11:41:34;;;;;;;5.85;1.67;;;13.30;99.90;;;;;;5052793;28;20035;-73
2023/03/09 11:44:08;;;;;;;6.78;0.90;;;13.30;99.90;;;;;;5059535;28;20075;-76
2023/03/09 11:46:35;;;;;;;5.03;0.95;;;13.40;99.90;;;;;;5060953;28;20036;-73
2023/03/09 11:49:20;;;;;;;3.58;1.00;;;13.60;99.90;;;;;;5061229;28;20045;-76
2023/03/09 11:51:49;;;;;;;2.08;0.90;;;13.90;99.90;;;;;;5058302;28;20041;-72
2023/03/09 11:54:24;;;;;;;5.35;1.42;;;14.30;99.90;;;;;;5055581;28;20033;-72
2023/03/09 11:56:52;;;;;;;6.75;0.90;;;14.30;99.90;;;;;;5059910;28;20040;-73
2023/03/09 11:59:33;;;;;;;2.70;1.05;;;14.40;99.90;;;;;;5056778;28;20044;-72
2023/03/09 12:02:19;;;;;;;6.03;1.05;;;14.40;99.90;;;;;;5057494;28;20378;-73
2023/03/09 12:04:50;;;;;;;5.25;1.00;;;14.20;99.90;;;;;;5059234;28;20099;-72
2023/03/09 12:07:30;;;;;;;4.65;1.02;;;14.00;99.90;;;;;;5060976;28;20036;-73
2023/03/09 12:10:07;;;;;;;5.18;0.85;;;14.00;99.90;;;;;;5068004;28;20036;-74
2023/03/09 12:12:53;;;;;;;2.88;0.90;;;14.10;99.90;;;;;;5063471;28;20044;-73
2023/03/09 12:15:33;;;;;;;6.43;1.00;;;13.90;99.90;;;;;;5062712;28;20029;-73
2023/03/09 12:18:01;;;;;;;5.60;1.52;;;13.70;99.90;;;;;;5064342;28;20036;-73
2023/03/09 12:20:40;;;;;;;6.75;1.23;;;13.80;99.90;;;;;;5061508;28;20032;-73
2023/03/09 12:23:34;;;;;;;4.65;1.00;;;14.00;99.90;;;;;;5059401;28;20351;-74
2023/03/09 12:26:03;;;;;;;2.60;0.73;;;13.90;99.90;;;;;;5058783;28;20024;-73
2023/03/09 12:28:30;;;;;;;7.28;1.98;;;13.70;99.90;;;;;;5053274;28;20033;-73
2023/03/09 12:30:57;;;;;;;9.10;2.33;;;13.80;99.90;;;;;;5051356;28;20021;-73
2023/03/09 12:33:42;;;;;;;4.78;1.30;;;14.00;99.90;;;;;;5055782;28;20091;-73
2023/03/09 12:36:25;;;;;;;6.50;1.58;;;14.30;99.90;;;;;;5054296;28;20416;-73
2023/03/09 12:39:22;;;;;;;3.65;1.10;;;14.50;99.90;;;;;;5053467;28;20044;-72
2023/03/09 12:41:59;;;;;;;4.32;0.88;;;14.30;99.90;;;;;;5055795;28;20025;-73
2023/03/09 12:44:43;;;;;;;5.68;1.13;;;14.30;99.90;;;;;;5052823;28;20537;-72
2023/03/09 12:47:43;;;;;;;2.90;1.08;;;14.50;99.90;;;;;;5057518;28;20029;-72
2023/03/09 12:50:21;;;;;;;6.18;1.35;;;14.50;99.90;;;;;;5061254;28;20473;-74
2023/03/09 12:53:14;;;;;;;4.40;2.28;;;14.50;99.90;;;;;;5063294;28;20041;-73
2023/03/09 12:55:50;;;;;;;4.43;1.25;;;14.60;99.90;;;;;;5062544;28;20382;-73
2023/03/09 12:58:20;;;;;;;1.70;0.60;;;14.40;99.90;;;;;;5065524;28;20041;-73
2023/03/09 13:00:57;;;;;;;3.20;0.90;;;14.00;99.90;;;;;;5061351;28;20516;-73
2023/03/09 13:03:31;;;;;;;2.42;0.52;;;13.70;99.90;;;;;;5063854;28;20033;-74
2023/03/09 13:06:00;;;;;;;1.63;0.52;;;13.60;99.90;;;;;;5065605;28;20970;-72
2023/03/09 13:08:26;;;;;;;2.35;0.70;;;13.60;99.90;;;;;;5064377;28;20029;-73
2023/03/09 13:11:24;;;;;;;3.00;0.50;;;13.80;99.90;;;;;;5064736;28;20039;-74
2023/03/09 13:13:54;;;;;;;3.20;0.50;;;13.70;99.90;;;;;;5064659;28;20400;-75
2023/03/09 13:16:48;;;;;;;3.00;0.77;;;13.70;99.90;;;;;;5060756;28;20036;-74